Bredenbury, Canada
Current Conditions -  °F | °C
As of 12:30 PM on Friday 28 Nov 2014 (Local Time) from CYQV Reporting Station
Light Snow Light Snow  
Wind Chill: -19°   Ceiling: 4400
Heat Index:   Visibility: 9mi
Dew Point:   Wind: 22mph
Humidity: 85%   Direction: 110°ESE
Pressure: 29.72"   Gusts: NA
Location:  50.93°N, 102.03°W
Report Text: CYQV 281830Z AUTO 11019KT 9SM -SN OVC044 M16/M18 A2972 RMK PRESFR SLP109
Loading
Personal Weather Stations






























Interactive Weather Map New forecast layout! Learn more

10-Day Weather Forecast

Advertisements
Track Severe Weather on mobile